createdAt,value
2018-07-09T00:00:12.866Z,101746.00
2018-07-09T00:05:06.216Z,101745.00
2018-07-09T00:10:00.030Z,101744.00
2018-07-09T00:14:53.284Z,101747.00
2018-07-09T00:19:46.652Z,101748.00
2018-07-09T00:24:39.897Z,101751.00
2018-07-09T00:29:33.173Z,101757.00
2018-07-09T00:34:26.549Z,101755.00
2018-07-09T00:39:19.814Z,101748.00
2018-07-09T00:44:13.109Z,101750.00
2018-07-09T00:49:06.320Z,101760.00
2018-07-09T00:53:59.442Z,101760.00
2018-07-09T00:58:52.691Z,101766.00
2018-07-09T01:03:45.949Z,101766.00
2018-07-09T01:08:39.192Z,101762.00
2018-07-09T01:13:44.378Z,101769.00
2018-07-09T01:18:37.618Z,101765.00
2018-07-09T01:23:31.130Z,101766.00
2018-07-09T01:28:24.485Z,101771.00
2018-07-09T01:33:17.691Z,101768.00
2018-07-09T01:38:10.966Z,101770.00
2018-07-09T01:43:04.231Z,101774.00
2018-07-09T01:47:57.413Z,101767.00
2018-07-09T01:52:50.629Z,101766.00
2018-07-09T01:57:43.839Z,101768.00
2018-07-09T02:02:36.980Z,101769.00
2018-07-09T02:07:30.225Z,101766.00
2018-07-09T02:12:23.479Z,101771.00
2018-07-09T02:17:16.731Z,101770.00
2018-07-09T02:22:10.015Z,101764.00
2018-07-09T02:27:03.334Z,101756.00
2018-07-09T02:31:56.610Z,101758.00
2018-07-09T02:36:49.835Z,101754.00
2018-07-09T02:41:43.087Z,101757.00
2018-07-09T02:46:36.322Z,101765.00
2018-07-09T02:51:29.566Z,101776.00
2018-07-09T02:56:22.789Z,101770.00
2018-07-09T03:01:16.136Z,101771.00
2018-07-09T03:06:09.232Z,101774.00
2018-07-09T03:11:02.811Z,101784.00
2018-07-09T03:15:55.976Z,101784.00
2018-07-09T03:20:49.234Z,101781.00
2018-07-09T03:25:42.479Z,101779.00
2018-07-09T03:30:35.686Z,101786.00
2018-07-09T03:35:28.988Z,101787.00
2018-07-09T03:40:22.229Z,101784.00
2018-07-09T03:45:15.468Z,101782.00
2018-07-09T03:50:08.614Z,101782.00
2018-07-09T03:55:01.876Z,101789.00
2018-07-09T03:59:55.131Z,101791.00
2018-07-09T04:04:48.372Z,101788.00
2018-07-09T04:09:41.491Z,101789.00
2018-07-09T04:14:34.740Z,101792.00
2018-07-09T04:19:27.955Z,101793.00
2018-07-09T04:24:21.152Z,101798.00
2018-07-09T04:29:14.358Z,101804.00
2018-07-09T04:34:07.956Z,101806.00
2018-07-09T04:39:01.401Z,101812.00
2018-07-09T04:43:54.520Z,101817.00
2018-07-09T04:48:48.289Z,101813.00
2018-07-09T04:53:41.477Z,101808.00
2018-07-09T04:58:34.722Z,101804.00
2018-07-09T05:03:27.952Z,101797.00
2018-07-09T05:08:21.184Z,101795.00
2018-07-09T05:13:14.438Z,101793.00
2018-07-09T05:18:07.667Z,101798.00
2018-07-09T05:23:00.889Z,101798.00
2018-07-09T05:27:54.112Z,101804.00
2018-07-09T05:32:47.371Z,101805.00
2018-07-09T05:37:40.616Z,101797.00
2018-07-09T05:42:34.349Z,101811.00
2018-07-09T05:47:27.665Z,101801.00
2018-07-09T05:52:20.835Z,101807.00
2018-07-09T05:57:13.970Z,101799.00
2018-07-09T06:02:07.307Z,101793.00
2018-07-09T06:07:00.553Z,101781.00
2018-07-09T06:11:53.726Z,101780.00
2018-07-09T06:16:46.843Z,101779.00
2018-07-09T06:21:40.046Z,101785.00
2018-07-09T06:26:34.296Z,101787.00
2018-07-09T06:31:27.611Z,101792.00
2018-07-09T06:36:20.970Z,101786.00
2018-07-09T06:41:14.263Z,101784.00
2018-07-09T06:46:07.620Z,101780.00
2018-07-09T06:51:00.982Z,101780.00
2018-07-09T06:55:54.228Z,101784.00
2018-07-09T07:00:47.468Z,101786.00
2018-07-09T07:05:40.851Z,101780.00
2018-07-09T07:10:34.167Z,101784.00
2018-07-09T07:15:27.402Z,101793.00
2018-07-09T07:20:20.690Z,101785.00
2018-07-09T07:25:14.012Z,101776.00
2018-07-09T07:30:07.321Z,101780.00
2018-07-09T07:35:00.565Z,101791.00
2018-07-09T07:39:53.802Z,101800.00
2018-07-09T07:44:47.114Z,101792.00
2018-07-09T07:49:40.308Z,101798.00
2018-07-09T07:54:33.576Z,101791.00
2018-07-09T07:59:26.816Z,101779.00
2018-07-09T08:04:20.101Z,101785.00
2018-07-09T08:09:13.482Z,101786.00
2018-07-09T08:14:06.601Z,101772.00
2018-07-09T08:18:59.886Z,101779.00
2018-07-09T08:23:53.149Z,101782.00
2018-07-09T08:28:46.416Z,101779.00
2018-07-09T08:33:39.724Z,101762.00
2018-07-09T08:38:32.885Z,101760.00
2018-07-09T08:43:26.232Z,101758.00
2018-07-09T08:48:19.536Z,101763.00
2018-07-09T08:53:12.807Z,101760.00
2018-07-09T08:58:06.185Z,101767.00
2018-07-09T09:02:59.425Z,101757.00
2018-07-09T09:07:52.665Z,101756.00
2018-07-09T09:12:45.932Z,101744.00
2018-07-09T09:17:39.148Z,101758.00
2018-07-09T09:22:32.405Z,101752.00
2018-07-09T09:27:25.723Z,101755.00
2018-07-09T09:32:18.992Z,101746.00
2018-07-09T09:37:12.273Z,101749.00
2018-07-09T09:42:06.094Z,101738.00
2018-07-09T09:46:59.376Z,101737.00
2018-07-09T09:51:52.606Z,101723.00
2018-07-09T09:56:45.869Z,101708.00
2018-07-09T10:01:39.127Z,101713.00
2018-07-09T10:06:32.442Z,101703.00
2018-07-09T10:11:25.729Z,101703.00
2018-07-09T10:16:19.083Z,101690.00
2018-07-09T10:21:12.444Z,101704.00
2018-07-09T10:26:05.825Z,101691.00
2018-07-09T10:30:59.024Z,101702.00
2018-07-09T10:35:52.287Z,101711.00
2018-07-09T10:40:46.068Z,101706.00
2018-07-09T10:45:39.312Z,101708.00
2018-07-09T10:50:32.883Z,101698.00
2018-07-09T10:55:26.242Z,101701.00
2018-07-09T11:00:19.533Z,101689.00
2018-07-09T11:05:12.788Z,101681.00
2018-07-09T11:10:05.927Z,101687.00
2018-07-09T11:14:59.215Z,101682.00
2018-07-09T11:19:52.475Z,101670.00
2018-07-09T11:24:45.728Z,101666.00
2018-07-09T11:29:38.985Z,101663.00
2018-07-09T11:34:32.239Z,101668.00
2018-07-09T11:39:25.387Z,101657.00
2018-07-09T11:44:18.656Z,101665.00
2018-07-09T11:49:12.200Z,101662.00
2018-07-09T11:54:05.652Z,101656.00
2018-07-09T11:58:58.898Z,101658.00
2018-07-09T12:03:52.627Z,101647.00
2018-07-09T12:08:46.065Z,101647.00
2018-07-09T12:13:39.357Z,101647.00
2018-07-09T12:18:32.852Z,101638.00
2018-07-09T12:23:26.075Z,101632.00
2018-07-09T12:28:19.343Z,101637.00
2018-07-09T12:33:12.558Z,101647.00
2018-07-09T12:38:05.950Z,101649.00
2018-07-09T12:42:59.092Z,101630.00
2018-07-09T12:47:52.329Z,101650.00
2018-07-09T12:52:45.547Z,101644.00
2018-07-09T12:57:38.824Z,101641.00
2018-07-09T13:02:32.150Z,101639.00
2018-07-09T13:07:25.993Z,101634.00
2018-07-09T13:12:24.822Z,101631.00
2018-07-09T13:17:18.103Z,101621.00
2018-07-09T13:22:11.436Z,101626.00
2018-07-09T13:27:04.701Z,101627.00
2018-07-09T13:31:58.537Z,101617.00
2018-07-09T13:36:52.531Z,101612.00
2018-07-09T13:41:45.879Z,101601.00
2018-07-09T13:46:39.053Z,101594.00
2018-07-09T13:51:32.422Z,101599.00
2018-07-09T13:56:25.645Z,101586.00
2018-07-09T14:01:18.919Z,101573.00
2018-07-09T14:06:12.289Z,101579.00
2018-07-09T14:11:05.536Z,101569.00
2018-07-09T14:15:58.729Z,101568.00
2018-07-09T14:20:51.957Z,101563.00
2018-07-09T14:25:45.210Z,101566.00
2018-07-09T14:30:38.585Z,101552.00
2018-07-09T14:35:31.848Z,101555.00
2018-07-09T14:40:25.307Z,101553.00
2018-07-09T14:45:18.819Z,101547.00
2018-07-09T14:50:12.185Z,101542.00
2018-07-09T14:55:05.665Z,101537.00
2018-07-09T14:59:58.924Z,101529.00
2018-07-09T15:04:52.491Z,101518.00
2018-07-09T15:09:45.648Z,101519.00
2018-07-09T15:14:38.993Z,101520.00
2018-07-09T15:19:32.209Z,101512.00
2018-07-09T15:24:25.363Z,101506.00
2018-07-09T15:29:18.749Z,101506.00
2018-07-09T15:34:12.453Z,101496.00
2018-07-09T15:39:05.611Z,101496.00
2018-07-09T15:44:01.792Z,101500.00
2018-07-09T15:48:55.035Z,101496.00
2018-07-09T15:53:48.212Z,101489.00
2018-07-09T15:58:41.373Z,101475.00
2018-07-09T16:03:34.697Z,101468.00
2018-07-09T16:08:27.952Z,101463.00
2018-07-09T16:13:21.272Z,101467.00
2018-07-09T16:18:14.607Z,101466.00
2018-07-09T16:23:07.913Z,101464.00
2018-07-09T16:28:01.161Z,101461.00
2018-07-09T16:32:54.414Z,101451.00
2018-07-09T16:37:48.425Z,101454.00
2018-07-09T16:42:41.709Z,101470.00
2018-07-09T16:47:34.968Z,101466.00
2018-07-09T16:52:28.213Z,101482.00
2018-07-09T16:57:22.303Z,101478.00
2018-07-09T17:02:15.631Z,101470.00
2018-07-09T17:07:09.560Z,101468.00
2018-07-09T17:12:02.807Z,101469.00
2018-07-09T17:16:56.059Z,101460.00
2018-07-09T17:21:49.350Z,101458.00
2018-07-09T17:26:42.918Z,101451.00
2018-07-09T17:31:36.081Z,101449.00
2018-07-09T17:36:29.339Z,101442.00
2018-07-09T17:41:22.536Z,101445.00
2018-07-09T17:46:15.812Z,101445.00
2018-07-09T17:51:09.055Z,101441.00
2018-07-09T17:56:02.215Z,101444.00
2018-07-09T18:00:55.476Z,101435.00
2018-07-09T18:05:48.746Z,101437.00
2018-07-09T18:10:41.978Z,101434.00
2018-07-09T18:15:35.283Z,101431.00
2018-07-09T18:20:28.492Z,101428.00
2018-07-09T18:25:21.777Z,101429.00
2018-07-09T18:30:15.035Z,101426.00
2018-07-09T18:35:08.355Z,101426.00
2018-07-09T18:40:01.577Z,101420.00
2018-07-09T18:44:54.833Z,101425.00
2018-07-09T18:49:48.074Z,101419.00
2018-07-09T18:54:41.301Z,101425.00
2018-07-09T18:59:34.531Z,101426.00
2018-07-09T19:04:28.420Z,101428.00
2018-07-09T19:09:22.516Z,101430.00
2018-07-09T19:14:18.504Z,101424.00
2018-07-09T19:19:28.891Z,101428.00
2018-07-09T19:24:20.453Z,101423.00
2018-07-09T19:29:12.038Z,101434.00
2018-07-09T19:34:03.667Z,101431.00
2018-07-09T19:38:55.210Z,101433.00
2018-07-09T19:43:46.803Z,101421.00
2018-07-09T19:48:38.382Z,101436.00
2018-07-09T19:53:30.004Z,101434.00
2018-07-09T19:58:21.570Z,101432.00
2018-07-09T20:03:13.139Z,101434.00
2018-07-09T20:08:05.468Z,101445.00
2018-07-09T20:13:03.611Z,101448.00
2018-07-09T20:17:55.209Z,101451.00
2018-07-09T20:22:46.800Z,101452.00
2018-07-09T20:27:38.387Z,101442.00
2018-07-09T20:32:29.967Z,101444.00
2018-07-09T20:37:21.856Z,101446.00
2018-07-09T20:42:13.446Z,101449.00
2018-07-09T20:47:05.030Z,101451.00
2018-07-09T20:51:56.619Z,101455.00
2018-07-09T20:56:48.177Z,101453.00
2018-07-09T21:01:39.745Z,101465.00
2018-07-09T21:06:31.323Z,101458.00
2018-07-09T21:11:22.962Z,101454.00
2018-07-09T21:16:14.578Z,101456.00
2018-07-09T21:21:06.737Z,101464.00
2018-07-09T21:25:58.426Z,101452.00
2018-07-09T21:30:50.007Z,101452.00
2018-07-09T21:35:41.611Z,101455.00
2018-07-09T21:40:33.169Z,101460.00
2018-07-09T21:45:24.734Z,101456.00
2018-07-09T21:50:16.309Z,101454.00
2018-07-09T21:55:07.909Z,101457.00
2018-07-09T22:00:00.468Z,101459.00
2018-07-09T22:04:52.051Z,101458.00
2018-07-09T22:09:43.689Z,101453.00
2018-07-09T22:14:35.264Z,101455.00
2018-07-09T22:19:26.910Z,101445.00
2018-07-09T22:24:18.581Z,101451.00
2018-07-09T22:29:10.629Z,101444.00
2018-07-09T22:34:03.859Z,101434.00
2018-07-09T22:38:57.079Z,101447.00
2018-07-09T22:44:07.440Z,101434.00
2018-07-09T22:49:00.573Z,101439.00
2018-07-09T22:53:53.783Z,101440.00
2018-07-09T22:58:46.926Z,101447.00
2018-07-09T23:03:40.174Z,101440.00
2018-07-09T23:08:33.465Z,101440.00
2018-07-09T23:15:41.575Z,101435.00
2018-07-09T23:21:53.950Z,101441.00
2018-07-09T23:26:45.517Z,101434.00
2018-07-09T23:31:37.153Z,101430.00
2018-07-09T23:36:28.736Z,101428.00
2018-07-09T23:41:20.313Z,101428.00
2018-07-09T23:46:12.352Z,101422.00
2018-07-09T23:51:03.967Z,101416.00
2018-07-09T23:57:22.345Z,101411.00
